Time;durP1;ratioP1;P1;durP2;ratioP2;P2;SDS_P1;SDS_P2;PMS_P1;PMS_P2;Temp;Humidity;BMP_temperature;BMP_pressure;BME280_temperature;BME280_humidity;BME280_pressure;Samples;Min_cycle;Max_cycle;Signal;HPM_P1;HPM_P2
2022/08/04 06:08:15;;;;;;;4.72;4.20;;;;;;;26.55;46.93;100558.38;6601311;27;194159;-90
2022/08/04 06:11:20;;;;;;;5.97;4.20;;;;;;;26.82;47.14;100561.66;6600536;26;34164;-89
2022/08/04 06:14:23;;;;;;;5.97;3.67;;;;;;;27.10;45.80;100555.69;6603396;26;34314;-89
2022/08/04 06:17:39;;;;;;;4.90;3.83;;;;;;;27.29;44.98;100561.69;6602825;26;33991;-89
2022/08/04 06:21:04;;;;;;;5.80;3.80;;;;;;;28.61;38.67;100555.91;6606486;27;35624;-89
2022/08/04 07:29:17;;;;;;;5.25;2.95;;;;;;;30.41;34.28;100543.13;6595293;27;20072;-90
2022/08/04 07:32:21;;;;;;;5.43;3.00;;;;;;;30.83;33.42;100540.38;6582188;27;34749;-89
2022/08/04 07:39:08;;;;;;;2.83;2.62;;;;;;;30.81;32.34;100538.87;6587746;27;20047;-88
2022/08/04 07:42:23;;;;;;;3.37;2.67;;;;;;;30.96;30.99;100534.06;6591098;27;34839;-89
2022/08/04 07:45:26;;;;;;;8.15;3.00;;;;;;;30.42;31.52;100533.88;6561341;27;33744;-90
2022/08/04 08:19:13;;;;;;;2.90;2.60;;;;;;;32.61;27.59;100514.19;6577115;27;20063;-90
2022/08/04 08:29:41;;;;;;;3.22;2.92;;;;;;;34.03;25.15;100515.75;6607164;26;20067;-90
2022/08/04 08:32:44;;;;;;;4.22;2.60;;;;;;;33.67;25.89;100511.94;6606157;27;33960;-89
2022/08/04 08:44:01;;;;;;;3.10;2.90;;;;;;;34.56;25.22;100516.19;6601047;26;20280;-89
2022/08/04 08:47:25;;;;;;;2.80;2.53;;;;;;;33.85;25.25;100522.13;6587013;27;32835;-89
2022/08/04 08:50:46;;;;;;;4.47;2.90;;;;;;;33.60;25.71;100520.25;6586947;27;32529;-88
2022/08/04 08:54:08;;;;;;;3.10;2.90;;;;;;;34.70;24.50;100518.78;6588291;27;32897;-90
2022/08/04 08:57:45;;;;;;;3.47;3.00;;;;;;;35.19;24.00;100518.69;6580254;27;34153;-90
2022/08/04 09:01:27;;;;;;;3.60;2.62;;;;;;;35.31;24.46;100511.28;6586389;26;33799;-89
2022/08/04 09:35:45;;;;;;;3.85;2.62;;;;;;;38.01;20.35;100507.16;6612450;27;20086;-91
2022/08/04 09:39:22;;;;;;;3.00;2.67;;;;;;;38.07;21.08;100502.53;6608685;26;34113;-89
2022/08/04 09:42:24;;;;;;;3.05;2.75;;;;;;;38.37;20.67;100499.31;6605481;27;33877;-90
2022/08/04 09:45:34;;;;;;;2.78;2.50;;;;;;;37.77;20.89;100506.56;6589709;27;32513;-90
2022/08/04 09:52:58;;;;;;;7.40;2.80;;;;;;;36.31;21.98;100489.44;6609194;27;20043;-90
2022/08/04 09:56:05;;;;;;;4.35;3.03;;;;;;;36.78;21.24;100483.72;6585659;27;34012;-90
2022/08/04 10:03:06;;;;;;;3.00;2.70;;;;;;;41.29;17.29;100482.16;6609172;26;20126;-92
2022/08/04 10:07:45;;;;;;;7.00;2.65;;;;;;;41.85;16.58;100475.59;6504803;27;20060;-91
2022/08/04 10:18:33;;;;;;;3.85;2.83;;;;;;;39.54;18.38;100471.19;6412609;27;20042;-87
2022/08/04 10:21:55;;;;;;;5.90;2.78;;;;;;;39.98;18.88;100475.59;6419327;27;34570;-86
2022/08/04 10:25:55;;;;;;;3.00;2.80;;;;;;;40.22;18.53;100458.41;6418253;27;32453;-87
2022/08/04 10:29:21;;;;;;;4.10;2.80;;;;;;;39.93;18.44;100464.47;6418606;27;34324;-86
2022/08/04 10:32:28;;;;;;;3.28;2.85;;;;;;;39.71;19.28;100459.91;6417463;27;34853;-86
2022/08/04 10:35:43;;;;;;;2.95;2.67;;;;;;;40.29;17.94;100453.47;6418410;27;33046;-87
2022/08/04 10:39:09;;;;;;;3.00;2.80;;;;;;;41.84;16.49;100457.25;6417269;27;34240;-86
2022/08/04 10:42:36;;;;;;;3.00;2.80;;;;;;;43.22;15.07;100452.91;6541265;27;33084;-91
2022/08/04 10:45:44;;;;;;;3.65;3.10;;;;;;;45.02;13.79;100449.84;6556190;27;32582;-90
2022/08/04 11:07:36;;;;;;;3.40;3.20;;;;;;;38.13;19.64;100422.06;6580224;27;20071;-90
2022/08/04 11:10:47;;;;;;;3.67;3.28;;;;;;;37.12;20.98;100424.88;6580212;27;33916;-90
2022/08/04 11:13:55;;;;;;;4.05;3.15;;;;;;;37.20;20.73;100420.84;6581636;27;34492;-89
2022/08/04 11:17:27;;;;;;;3.93;3.40;;;;;;;38.37;19.30;100423.66;6574019;27;33177;-90
2022/08/04 11:20:36;;;;;;;4.97;3.35;;;;;;;37.88;19.82;100420.66;6579874;27;34809;-89
2022/08/04 11:23:49;;;;;;;4.78;3.62;;;;;;;37.12;20.51;100421.25;6580568;27;33900;-90
2022/08/04 11:38:30;;;;;;;3.62;3.33;;;;;;;37.04;21.76;100415.03;6575805;26;20060;-90
2022/08/04 11:45:09;;;;;;;3.70;3.40;;;;;;;37.65;20.26;100416.19;6579377;27;33875;-89
2022/08/04 11:48:18;;;;;;;5.20;3.40;;;;;;;36.42;21.50;100409.34;6579136;27;34217;-88
2022/08/04 11:51:24;;;;;;;3.73;3.43;;;;;;;35.93;21.74;100417.22;6583452;27;33280;-89
2022/08/04 11:54:27;;;;;;;3.78;3.30;;;;;;;35.95;22.25;100406.75;6584031;26;33253;-91
2022/08/04 11:57:30;;;;;;;6.22;3.55;;;;;;;35.94;22.64;100396.81;6585592;27;35280;-90
2022/08/04 12:00:57;;;;;;;3.83;3.40;;;;;;;35.51;22.35;100385.97;6580302;27;33827;-91
2022/08/04 12:55:24;;;;;;;4.60;3.95;;;;;;;34.30;23.63;100339.31;6580331;27;20072;-89
2022/08/04 12:58:31;;;;;;;4.62;4.03;;;;;;;33.86;23.29;100337.59;6579672;26;35089;-90
2022/08/04 13:01:50;;;;;;;4.85;3.95;;;;;;;33.86;23.62;100328.50;6580878;27;35370;-90
2022/08/04 13:05:14;;;;;;;4.05;3.65;;;;;;;34.04;23.70;100332.31;6579579;27;33215;-89
2022/08/04 13:12:11;;;;;;;4.05;3.75;;;;;;;33.72;24.00;100327.81;6581756;27;20171;-88
2022/08/04 13:15:19;;;;;;;4.12;3.85;;;;;;;33.40;25.23;100319.75;6581076;27;33938;-90
2022/08/04 13:18:24;;;;;;;4.15;3.78;;;;;;;33.47;24.33;100323.25;6578835;27;32764;-90
2022/08/04 13:21:33;;;;;;;5.45;3.85;;;;;;;33.76;24.03;100325.44;6573787;26;34172;-90
2022/08/04 13:24:57;;;;;;;6.93;3.87;;;;;;;33.95;23.40;100316.09;6573093;26;35393;-90
2022/08/04 13:28:26;;;;;;;5.18;3.80;;;;;;;33.93;24.05;100314.66;6574539;27;32544;-89
2022/08/04 13:31:31;;;;;;;8.45;3.90;;;;;;;33.78;23.64;100307.66;6581249;27;33458;-89
2022/08/04 13:34:41;;;;;;;4.00;3.70;;;;;;;34.04;24.19;100308.37;6580807;27;34354;-88
2022/08/04 13:37:51;;;;;;;7.15;3.80;;;;;;;34.34;24.91;100299.22;6581081;27;34329;-89
2022/08/04 13:40:58;;;;;;;5.78;3.83;;;;;;;34.21;23.52;100308.53;6582040;26;33834;-89
2022/08/04 13:44:03;;;;;;;4.35;3.72;;;;;;;34.14;23.49;100302.31;6582869;27;33954;-88
2022/08/04 13:47:29;;;;;;;6.95;4.18;;;;;;;34.01;23.88;100292.31;6594071;27;32693;-91
2022/08/04 13:50:32;;;;;;;4.97;4.00;;;;;;;34.17;23.62;100298.25;6592364;27;34864;-89
2022/08/04 13:53:39;;;;;;;10.25;4.20;;;;;;;33.96;23.68;100287.50;6575473;26;34209;-90
2022/08/04 13:56:47;;;;;;;4.25;3.72;;;;;;;33.95;23.54;100287.75;6527478;27;33640;-90
2022/08/04 13:59:56;;;;;;;5.45;3.80;;;;;;;34.17;23.62;100290.00;6553204;27;34071;-90
2022/08/04 14:03:02;;;;;;;3.97;3.70;;;;;;;34.12;23.67;100280.53;6533080;27;32582;-90
2022/08/04 14:06:30;;;;;;;4.20;3.80;;;;;;;33.77;24.19;100280.41;6552879;27;33823;-89
2022/08/04 14:09:36;;;;;;;4.07;3.65;;;;;;;34.14;23.20;100283.03;6534238;27;33598;-91
2022/08/04 14:20:09;;;;;;;4.45;3.70;;;;;;;34.08;23.38;100268.31;6611913;26;20051;-94
2022/08/04 14:23:12;;;;;;;5.03;3.87;;;;;;;33.95;23.74;100271.22;6626084;26;35437;-93
2022/08/04 14:26:27;;;;;;;4.05;3.75;;;;;;;33.76;23.66;100257.53;6616004;27;35214;-93
2022/08/04 14:29:37;;;;;;;7.47;3.95;;;;;;;33.82;23.97;100256.59;6607523;27;34402;-90
2022/08/04 14:33:09;;;;;;;4.30;3.65;;;;;;;33.92;24.10;100261.53;6587559;27;32496;-91
2022/08/04 14:36:40;;;;;;;4.12;3.83;;;;;;;33.89;24.33;100259.28;6611646;27;34024;-89
2022/08/04 14:40:03;;;;;;;5.45;3.85;;;;;;;34.05;23.69;100256.94;6587734;27;32969;-89
2022/08/04 14:43:28;;;;;;;5.10;3.70;;;;;;;34.07;23.64;100261.13;6606874;27;34337;-89
2022/08/04 14:46:31;;;;;;;10.35;4.00;;;;;;;33.93;24.00;100259.62;6587338;27;32866;-90
2022/08/04 14:49:53;;;;;;;4.00;3.80;;;;;;;33.44;24.77;100258.56;6607964;27;33980;-89
2022/08/04 14:53:14;;;;;;;5.78;3.92;;;;;;;33.51;24.64;100260.44;6589102;27;32373;-89
2022/08/04 14:56:19;;;;;;;5.57;4.18;;;;;;;33.74;24.12;100251.44;6590691;27;32603;-90
2022/08/04 14:59:46;;;;;;;4.30;3.90;;;;;;;33.66;23.98;100249.88;6610016;27;34063;-90
2022/08/04 15:03:09;;;;;;;4.35;4.00;;;;;;;33.55;24.32;100247.91;6607169;27;34967;-89
2022/08/04 15:06:12;;;;;;;6.35;4.12;;;;;;;33.69;24.58;100246.63;6606613;27;33888;-89
2022/08/04 15:09:21;;;;;;;5.53;3.87;;;;;;;33.47;24.05;100244.37;6586888;27;32567;-88
2022/08/04 15:12:23;;;;;;;4.07;3.78;;;;;;;33.57;24.18;100246.59;6606496;27;34771;-88
2022/08/04 15:15:28;;;;;;;4.43;3.50;;;;;;;33.63;23.90;100255.00;6606930;27;34224;-89
2022/08/04 15:18:40;;;;;;;3.90;3.60;;;;;;;33.74;23.79;100245.94;6607074;27;34609;-89
